createdAt,value
2018-07-02T00:02:16.951Z,36.40
2018-07-02T00:07:19.306Z,36.60
2018-07-02T00:12:14.746Z,37.00
2018-07-02T00:17:09.465Z,37.40
2018-07-02T00:22:04.483Z,37.60
2018-07-02T00:31:53.930Z,38.40
2018-07-02T00:36:49.257Z,38.80
2018-07-02T00:41:44.449Z,39.10
2018-07-02T00:51:33.852Z,39.40
2018-07-02T00:56:28.850Z,39.80
2018-07-02T01:01:27.728Z,39.60
2018-07-02T01:06:22.573Z,39.70
2018-07-02T01:11:17.573Z,39.80
2018-07-02T01:16:12.545Z,40.20
2018-07-02T01:21:07.362Z,40.50
2018-07-02T01:26:02.312Z,40.60
2018-07-02T01:30:57.753Z,40.60
2018-07-02T01:35:52.670Z,41.40
2018-07-02T01:40:47.813Z,41.30
2018-07-02T01:45:42.626Z,41.80
2018-07-02T01:50:37.357Z,42.20
2018-07-02T01:55:32.242Z,41.90
2018-07-02T02:00:27.057Z,42.60
2018-07-02T02:05:21.783Z,42.90
2018-07-02T02:10:16.559Z,43.10
2018-07-02T02:15:11.528Z,43.10
2018-07-02T02:20:06.772Z,43.40
2018-07-02T02:29:57.180Z,44.30
2018-07-02T02:34:52.264Z,45.10
2018-07-02T02:44:41.884Z,45.80
2018-07-02T02:49:36.875Z,46.00
2018-07-02T02:59:26.348Z,46.60
2018-07-02T03:04:21.798Z,46.90
2018-07-02T03:09:16.693Z,47.00
2018-07-02T03:14:11.366Z,46.60
2018-07-02T03:24:01.403Z,47.40
2018-07-02T03:28:56.240Z,47.40
2018-07-02T03:33:51.152Z,47.70
2018-07-02T03:38:45.820Z,48.00
2018-07-02T03:43:40.638Z,48.10
2018-07-02T03:48:35.336Z,48.40
2018-07-02T03:53:30.026Z,48.70
2018-07-02T03:58:24.897Z,49.30
2018-07-02T04:03:19.694Z,49.30
2018-07-02T04:13:08.970Z,49.50
2018-07-02T04:18:03.651Z,49.50
2018-07-02T04:22:58.455Z,49.30
2018-07-02T04:27:53.834Z,49.50
2018-07-02T04:32:49.763Z,49.60
2018-07-02T04:37:44.762Z,49.30
2018-07-02T04:42:39.502Z,49.00
2018-07-02T04:47:34.750Z,48.40
2018-07-02T04:52:30.580Z,48.00
2018-07-02T04:57:25.236Z,47.90
2018-07-02T05:02:20.075Z,46.90
2018-07-02T05:07:14.539Z,45.40
2018-07-02T05:12:11.096Z,44.80
2018-07-02T05:17:06.833Z,42.40
2018-07-02T05:22:01.808Z,37.40
2018-07-02T05:31:50.863Z,31.00
2018-07-02T05:36:45.712Z,29.20
2018-07-02T05:41:40.642Z,28.00
2018-07-02T05:46:35.352Z,26.90
2018-07-02T05:51:30.076Z,25.00
2018-07-02T05:56:24.887Z,24.50
2018-07-02T06:01:19.644Z,24.20
2018-07-02T06:06:14.720Z,23.30
2018-07-02T06:11:09.672Z,22.10
2018-07-02T06:16:05.251Z,20.70
2018-07-02T06:21:00.646Z,20.30
2018-07-02T06:25:55.630Z,20.50
2018-07-02T06:30:50.509Z,20.60
2018-07-02T06:35:45.620Z,20.40
2018-07-02T06:40:40.312Z,19.70
2018-07-02T06:45:35.762Z,18.90
2018-07-02T06:50:30.653Z,18.20
2018-07-02T06:55:28.960Z,17.40
2018-07-02T07:00:23.941Z,17.40
2018-07-02T07:10:14.000Z,16.30
2018-07-02T07:15:10.082Z,15.70
2018-07-02T07:20:05.733Z,15.00
2018-07-02T07:25:01.335Z,14.70
2018-07-02T07:29:56.535Z,14.70
2018-07-02T07:34:52.248Z,14.60
2018-07-02T07:44:42.407Z,14.30
2018-07-02T07:49:37.355Z,13.70
2018-07-02T07:54:32.042Z,13.00
2018-07-02T07:59:29.189Z,13.20
2018-07-02T08:04:24.015Z,13.20
2018-07-02T08:09:18.742Z,12.70
2018-07-02T08:14:13.468Z,12.60
2018-07-02T08:19:08.583Z,11.90
2018-07-02T08:28:58.526Z,11.40
2018-07-02T08:33:53.697Z,12.00
2018-07-02T08:38:48.698Z,11.60
2018-07-02T08:48:38.290Z,12.40
2018-07-02T08:53:33.008Z,12.30
2018-07-02T08:58:27.880Z,11.60
2018-07-02T09:03:22.592Z,10.60
2018-07-02T09:08:17.522Z,10.70
2018-07-02T09:13:12.459Z,10.70
2018-07-02T09:18:07.280Z,9.80
2018-07-02T09:23:02.109Z,9.40
2018-07-02T09:27:56.884Z,9.50
2018-07-02T09:32:51.766Z,9.40
2018-07-02T09:37:46.665Z,9.40
2018-07-02T09:42:41.464Z,10.10
2018-07-02T09:47:36.177Z,10.50
2018-07-02T09:52:30.901Z,11.10
2018-07-02T10:02:20.548Z,13.20
2018-07-02T10:07:15.250Z,16.40
2018-07-02T10:12:10.188Z,19.00
2018-07-02T10:17:04.891Z,21.20
2018-07-02T10:22:00.086Z,22.60
2018-07-02T10:31:49.522Z,24.50
2018-07-02T10:36:44.128Z,25.30
2018-07-02T10:41:39.460Z,25.20
2018-07-02T10:46:34.039Z,25.50
2018-07-02T10:51:28.524Z,26.40
2018-07-02T10:56:23.440Z,26.60
2018-07-02T11:01:18.006Z,26.50
2018-07-02T11:06:12.620Z,26.30
2018-07-02T11:11:07.308Z,26.80
2018-07-02T11:16:01.781Z,26.80
2018-07-02T11:20:56.242Z,26.80
2018-07-02T11:25:51.531Z,26.70
2018-07-02T11:30:49.048Z,26.90
2018-07-02T11:40:37.962Z,26.70
2018-07-02T11:50:27.189Z,26.50
2018-07-02T12:00:16.123Z,26.10
2018-07-02T12:05:10.564Z,25.70
2018-07-02T12:10:05.091Z,25.20
2018-07-02T12:14:59.961Z,25.70
2018-07-02T12:19:54.426Z,25.70
2018-07-02T12:29:43.500Z,25.30
2018-07-02T12:34:37.937Z,25.50
2018-07-02T12:39:32.764Z,25.60
2018-07-02T12:44:27.992Z,25.30
2018-07-02T12:49:23.493Z,25.30
2018-07-02T12:54:18.574Z,25.50
2018-07-02T12:59:14.202Z,25.40
2018-07-02T13:04:09.307Z,24.80
2018-07-02T13:09:07.459Z,24.80
2018-07-02T13:18:56.628Z,24.60
2018-07-02T13:23:51.458Z,24.50
2018-07-02T13:28:47.212Z,24.20
2018-07-02T13:33:42.508Z,24.30
2018-07-02T13:38:37.991Z,24.60
2018-07-02T13:43:33.049Z,24.90
2018-07-02T13:48:28.033Z,24.80
2018-07-02T13:53:22.999Z,24.80
2018-07-02T13:58:18.255Z,24.70
2018-07-02T14:03:13.500Z,24.70
2018-07-02T14:08:08.274Z,24.60
2018-07-02T14:13:03.544Z,24.30
2018-07-02T14:18:00.766Z,24.40
2018-07-02T14:22:57.249Z,24.20
2018-07-02T14:32:47.523Z,24.00
2018-07-02T14:37:43.345Z,24.00
2018-07-02T14:47:33.260Z,24.20
2018-07-02T14:52:28.590Z,24.70
2018-07-02T14:57:23.098Z,24.50
2018-07-02T15:02:17.898Z,24.90
2018-07-02T15:07:12.833Z,24.50
2018-07-02T15:12:07.888Z,24.70
2018-07-02T15:17:03.024Z,23.80
2018-07-02T15:21:57.746Z,24.10
2018-07-02T16:00:11.392Z,25.60
2018-07-02T16:38:27.959Z,24.40
2018-07-02T16:48:17.268Z,24.60
2018-07-02T16:53:11.866Z,24.60
2018-07-02T16:58:06.741Z,24.60
2018-07-02T17:03:01.216Z,24.60
2018-07-02T17:07:55.834Z,24.20
2018-07-02T17:12:51.026Z,24.40
2018-07-02T17:17:45.716Z,24.70
2018-07-02T17:22:40.613Z,24.50
2018-07-02T17:27:35.453Z,24.80
2018-07-02T17:32:30.278Z,24.80
2018-07-02T17:37:24.931Z,27.30
2018-07-02T17:42:20.083Z,27.50
2018-07-02T17:47:14.820Z,27.60
2018-07-02T17:52:09.297Z,28.00
2018-07-02T17:57:04.589Z,28.20
2018-07-02T18:01:59.062Z,28.10
2018-07-02T18:06:53.866Z,28.40
2018-07-02T18:11:48.373Z,28.60
2018-07-02T18:16:43.136Z,28.90
2018-07-02T18:21:37.831Z,29.10
2018-07-02T18:26:32.345Z,29.40
2018-07-02T18:31:27.540Z,29.30
2018-07-02T18:36:22.288Z,29.70
2018-07-02T18:46:12.103Z,30.40
2018-07-02T18:51:07.138Z,30.20
2018-07-02T18:56:02.353Z,30.40
2018-07-02T19:00:57.398Z,30.50
2018-07-02T19:05:52.316Z,30.80
2018-07-02T19:10:46.936Z,31.10
2018-07-02T19:15:41.477Z,31.60
2018-07-02T19:20:36.353Z,32.00
2018-07-02T19:25:30.947Z,32.40
2018-07-02T19:30:25.913Z,32.50
2018-07-02T19:35:20.868Z,32.60
2018-07-02T19:40:15.731Z,32.70
2018-07-02T19:45:10.221Z,33.20
2018-07-02T19:50:05.843Z,33.50
2018-07-02T19:55:02.018Z,33.80
2018-07-02T19:59:57.068Z,34.40
2018-07-02T20:04:51.804Z,35.00
2018-07-02T20:09:46.342Z,35.80
2018-07-02T20:14:41.230Z,35.70
2018-07-02T20:19:35.736Z,36.10
2018-07-02T20:24:30.416Z,36.60
2018-07-02T20:29:25.152Z,36.80
2018-07-02T20:34:19.655Z,37.30
2018-07-02T20:39:14.118Z,37.70
2018-07-02T20:44:09.469Z,38.00
2018-07-02T20:53:59.419Z,39.00
2018-07-02T21:08:45.267Z,40.60
2018-07-02T21:23:32.567Z,40.80
2018-07-02T21:28:27.807Z,41.10
2018-07-02T21:38:17.831Z,41.20
2018-07-02T21:43:13.697Z,41.60
2018-07-02T21:48:09.054Z,41.90
2018-07-02T21:53:03.769Z,42.00
2018-07-02T21:57:59.176Z,42.20
2018-07-02T22:02:54.019Z,42.40
2018-07-02T22:17:37.614Z,41.90
2018-07-02T22:22:33.281Z,41.80
2018-07-02T22:27:28.013Z,42.10
2018-07-02T22:32:22.711Z,42.30
2018-07-02T22:37:18.203Z,42.20
2018-07-02T22:42:12.721Z,42.30
2018-07-02T22:47:07.918Z,42.50
2018-07-02T22:52:04.424Z,42.60
2018-07-02T23:01:53.749Z,43.20
2018-07-02T23:06:48.938Z,43.20
2018-07-02T23:11:43.540Z,43.40
2018-07-02T23:16:38.248Z,43.60
2018-07-02T23:21:33.096Z,44.00
2018-07-02T23:26:27.573Z,44.40
2018-07-02T23:31:22.206Z,45.00
2018-07-02T23:36:16.872Z,45.60
2018-07-02T23:41:11.329Z,46.10
2018-07-02T23:46:05.832Z,46.80
2018-07-02T23:51:00.702Z,47.90
